Media Club - Hubbard, Freddie (Freddie Hubbard, Frederick Dewayne Hubbard) (MP3, Photo, Lyrics, Covers)
Legal Info  
newsabout ushelp (faq)searchdirectorylinkssoftwarechartsSwitch Language
 A   B   C   D   E   F   G   H   I   J   K   L   M   N   O   P   Q   R   S   T   U   V   W   X   Y   Z   0...9 
                                                                                  
directory
border=0

  Hubbard, Freddie

Hubbard, Freddie
  Band/Artist:  Hubbard, Freddie
Country:  USA
Genre:  Jazz
Style:
URL's:  myspace.com/hubtonez
 en.wikipedia.org/wiki/Freddie_Hubbard
 www.discogs.com/artist/Freddie+Hubbard
find track in this albums
Discography:
year title tracks added
(updated)
 Albums
2008 On The Real Side 2008 7 18.12.2012
2005 The Artist Selects 2005 9 18.12.2012
2001 New Colors 2001 8 18.12.2012
1999 Topsy (The Standard Book) 1999 9 18.12.2012
1998 God Bless The Child 1998 4 18.12.2012
1995 The Eternal Triangle (aplit) 1995 8 18.12.2012
1995 MMTC (Monk, Miles, Trane & Cannon) 1995 8 18.12.2012
1992 Blues for Miles 1992 8 18.12.2012
1990 Temptation 1990 6 18.12.2012
1989 Times Are Changing 1989 7 18.12.2012
1987 Life Flight 1987 4 05.01.2012
1985 Double Take (Split) 1985 7 05.01.2012
1983 Rose Tattoo 1983 7 05.01.2012
1982 Face To Face (Split) 1982 5 05.01.2012
1982 Born To Be Blue 1982 5 18.12.2012
1981 A Little Night Music 1981 4 05.01.2012
1981 Outpost 1981 5 05.01.2012
1981 Rollin' 1981 7 05.01.2012
1979 The Love Connection 1979 5 05.01.2012
1978 Super Blue 1978 6 05.01.2012
1975 Gleam 1975 7 05.01.2012
1975 The Baddest Hubbard 1975 4 18.12.2012
1975 Polar AC 1975 5 18.12.2012
1973 Leaving This Planet (split) 1973 10 18.12.2012
1973 Keep Your Soul Together 1973 4 18.12.2012
1972 Here To Stay 1972 6 04.02.2009
1972 Sky Dive 1972 6 05.01.2012
1971 Sing Me The Song Of Songmy 1971 10 29.05.2009
1971 First Light 1971 7 05.01.2012
1970 Red Clay 1970 6 05.01.2012
1970 Straight Life 1970 3 05.01.2012
1969 The Black Angel 1969 5 18.12.2012
1967 Backlash 1967 6 06.10.2008
1966 Blue Spirits 1966 7 18.12.2012
1964 Breaking Point! 1964 7 05.01.2012
1963 The Body And The Soul 1963 9 05.01.2012
1962 Hub-Tones 1962 8 18.12.2012
1962 The Artistry Of Freddie Hubbard 1962 5 18.12.2012
1961 Hub Cap 1961 7 05.01.2012
1961 Minor Mishap 1961 12 18.12.2012
1961 Ready For Freddie 1961 5 18.12.2012
1960 Open Sesame 1960 8 18.12.2012
1960 Goin' Up 1960 6 18.12.2012
 Live Albums
2011 Pinnacle Live & Unreleased: From Keystone Korner (San Francisco, Keystone Korner Jazz Club - 1980) 2011 7 12.09.2012
2009 Without A Song - Live in Europe, 1969 2009 7 18.12.2012
2002 Live In Warsaw 2002 4 18.12.2012
1982 Ride Like The Wind - Live 1982 7 18.12.2012
1965 The Night Of The Cookers (CD 1) 1965 2 18.12.2012
1965 The Night Of The Cookers (CD 2) 1965 2 18.12.2012
 Compilations, Remixes
1997 Ballads 1997 7 18.12.2012
1996 All Blues 1996 4 18.12.2012
1980 The Best Of 1980 7 05.01.2012
 Tributes
L 0.00 / D 0.00 1969 5 32014.11.2012
L 0.00 / D 1.00 1980 8 32018.09.2015
L 0.00 / D 0.00 1987 7 32006.09.2012
L 0.00 / D 0.00 1992 6 32003.11.2012
L 0.00 / D 0.00 2009 7 32014.11.2012
L 0.00 / D 0.00 1974 5 32016.11.2012
Status: Guest
SEARCH
Пользовательского поиска
LOOK ALSO
more info
HISTORY OF ADDITIONS
Mn Tu We Th Fr Sa Su
       1  2  3  4
 5  6  7  8  9  10  11
 12  13  14  15  16  17  18
 19  20  21  22  23  24  25
 26  27  28  29  30  31  
go top

Media ClubCreated by TDG